Time;durP1;ratioP1;P1;durP2;ratioP2;P2;SDS_P1;SDS_P2;PMS_P1;PMS_P2;Temp;Humidity;BMP_temperature;BMP_pressure;BME280_temperature;BME280_humidity;BME280_pressure;Samples;Min_cycle;Max_cycle;Signal;HPM_P1;HPM_P2
2023/01/08 00:00:47;;;;;;;5.75;3.85;;;9.30;99.90;;;;;;6029304;23;20378;-87
2023/01/08 00:03:13;;;;;;;7.72;4.18;;;9.30;99.90;;;;;;6027925;23;20086;-88
2023/01/08 00:05:39;;;;;;;4.93;3.90;;;9.20;99.90;;;;;;6028388;23;20457;-89
2023/01/08 00:08:07;;;;;;;4.78;3.85;;;9.20;99.90;;;;;;6050889;23;20339;-88
2023/01/08 00:10:33;;;;;;;4.38;3.60;;;9.30;99.90;;;;;;6028051;23;20015;-88
2023/01/08 00:12:59;;;;;;;4.40;3.65;;;9.40;99.90;;;;;;6028795;23;20011;-89
2023/01/08 00:15:24;;;;;;;6.40;3.90;;;9.30;99.90;;;;;;6051781;23;20078;-88
2023/01/08 00:17:50;;;;;;;4.40;3.88;;;9.30;99.90;;;;;;6050506;23;20067;-87
2023/01/08 00:20:19;;;;;;;5.32;3.53;;;9.40;99.90;;;;;;6029055;23;20030;-87
2023/01/08 00:22:48;;;;;;;5.10;3.88;;;9.40;99.90;;;;;;6026598;23;20029;-88
2023/01/08 00:25:13;;;;;;;5.47;3.72;;;9.40;99.90;;;;;;6054133;23;20453;-88
2023/01/08 00:27:39;;;;;;;4.60;3.65;;;9.40;99.90;;;;;;6028862;23;20019;-88
2023/01/08 00:30:05;;;;;;;4.10;3.58;;;9.50;99.90;;;;;;6029846;23;20046;-87
2023/01/08 00:32:31;;;;;;;5.43;3.83;;;9.50;99.90;;;;;;6052251;23;20022;-89
2023/01/08 00:35:00;;;;;;;5.38;3.95;;;9.50;99.90;;;;;;6029566;23;20094;-87
2023/01/08 00:37:27;;;;;;;4.35;3.38;;;9.50;99.90;;;;;;6027367;23;20025;-88
2023/01/08 00:39:52;;;;;;;5.70;3.78;;;9.50;99.90;;;;;;6029194;23;20019;-88
2023/01/08 00:42:18;;;;;;;4.95;3.42;;;9.50;99.90;;;;;;6051973;23;20026;-87
2023/01/08 00:44:44;;;;;;;6.18;3.55;;;9.50;99.90;;;;;;6028884;23;20022;-87
2023/01/08 00:47:09;;;;;;;5.82;3.70;;;9.40;99.90;;;;;;6027506;23;20046;-88
2023/01/08 00:49:35;;;;;;;4.68;4.10;;;9.50;99.90;;;;;;6028887;23;20101;-88
2023/01/08 00:52:04;;;;;;;4.43;3.70;;;9.50;99.90;;;;;;6051054;23;20025;-89
2023/01/08 00:54:30;;;;;;;5.93;3.75;;;9.50;99.90;;;;;;6053550;23;20344;-89
2023/01/08 00:56:55;;;;;;;5.28;3.90;;;9.40;99.90;;;;;;6028657;23;20101;-88
2023/01/08 00:59:21;;;;;;;5.95;3.38;;;9.40;99.90;;;;;;6029590;23;20421;-88
2023/01/08 01:01:47;;;;;;;4.88;3.78;;;9.40;99.90;;;;;;6029053;23;20015;-88
2023/01/08 01:04:13;;;;;;;4.88;3.20;;;9.50;99.90;;;;;;6027879;23;20468;-87
2023/01/08 01:06:41;;;;;;;3.70;3.30;;;9.60;99.90;;;;;;6028081;23;20015;-87
2023/01/08 01:09:07;;;;;;;3.80;3.05;;;9.50;99.90;;;;;;6026804;23;20019;-87
2023/01/08 01:11:33;;;;;;;6.15;3.22;;;9.50;99.90;;;;;;6028253;23;20196;-89
2023/01/08 01:13:59;;;;;;;4.97;3.15;;;9.60;99.90;;;;;;6027860;23;20026;-87
2023/01/08 01:16:25;;;;;;;6.13;3.20;;;9.60;99.90;;;;;;6028083;23;20046;-90
2023/01/08 01:18:55;;;;;;;5.60;3.63;;;9.50;99.90;;;;;;6025763;23;20082;-88
2023/01/08 01:21:27;;;;;;;5.25;3.20;;;9.50;99.90;;;;;;6051761;23;20022;-89
2023/01/08 01:23:54;;;;;;;4.57;3.47;;;9.50;99.90;;;;;;6026881;23;20281;-88
2023/01/08 01:26:24;;;;;;;3.58;3.00;;;9.50;99.90;;;;;;6053662;23;20022;-89
2023/01/08 01:29:10;;;;;;;5.55;3.75;;;9.50;99.90;;;;;;6052533;23;20074;-87
2023/01/08 01:31:35;;;;;;;4.90;3.67;;;9.50;99.90;;;;;;6028521;23;20057;-88
2023/01/08 01:34:03;;;;;;;5.20;3.55;;;9.50;99.90;;;;;;6052697;23;20023;-89
2023/01/08 01:36:29;;;;;;;4.70;3.63;;;9.50;99.90;;;;;;6028982;23;20054;-89
2023/01/08 01:38:59;;;;;;;4.78;3.50;;;9.50;99.90;;;;;;6027623;23;20023;-88
2023/01/08 01:41:27;;;;;;;7.03;4.05;;;9.50;99.90;;;;;;6029183;23;20030;-87
2023/01/08 01:43:58;;;;;;;8.30;3.50;;;9.60;99.90;;;;;;6052855;23;20033;-89
2023/01/08 01:46:35;;;;;;;5.88;3.55;;;9.60;99.90;;;;;;6028325;23;20069;-89
2023/01/08 01:49:33;;;;;;;4.97;3.38;;;9.50;99.90;;;;;;6029315;23;20015;-88
2023/01/08 01:52:04;;;;;;;5.80;3.97;;;9.50;99.90;;;;;;6038903;23;20366;-89
2023/01/08 01:54:31;;;;;;;5.72;3.70;;;9.40;99.90;;;;;;6029344;23;20023;-88
2023/01/08 01:56:58;;;;;;;5.72;3.67;;;9.40;99.90;;;;;;6052229;23;20015;-87
2023/01/08 01:59:24;;;;;;;4.75;3.35;;;9.40;99.90;;;;;;6029371;23;20018;-89
2023/01/08 02:01:51;;;;;;;6.60;3.08;;;9.40;99.90;;;;;;6053575;23;20021;-87
2023/01/08 02:04:19;;;;;;;6.07;3.15;;;9.30;99.90;;;;;;6030542;23;20061;-88
2023/01/08 02:06:55;;;;;;;5.95;2.60;;;9.30;99.90;;;;;;6054493;23;20114;-88
2023/01/08 02:09:48;;;;;;;4.05;2.30;;;9.30;99.90;;;;;;6053130;23;20015;-88
2023/01/08 02:12:38;;;;;;;6.70;2.65;;;9.20;99.90;;;;;;6019794;23;20419;-90
2023/01/08 02:15:31;;;;;;;4.47;2.00;;;9.10;99.90;;;;;;6030753;23;20101;-88
2023/01/08 02:18:07;;;;;;;6.45;1.85;;;9.10;99.90;;;;;;6028722;23;20058;-89
2023/01/08 02:20:38;;;;;;;7.35;1.90;;;9.10;99.90;;;;;;6054176;23;20356;-86
2023/01/08 02:23:40;;;;;;;8.52;1.90;;;9.10;99.90;;;;;;6028629;23;20392;-87
2023/01/08 02:26:14;;;;;;;5.97;1.88;;;9.00;99.90;;;;;;6029472;23;20420;-86
2023/01/08 02:28:54;;;;;;;5.90;1.65;;;8.90;99.90;;;;;;6053736;23;20496;-88
2023/01/08 02:31:23;;;;;;;8.65;2.00;;;8.90;99.90;;;;;;6030394;23;20054;-88
2023/01/08 02:33:48;;;;;;;10.70;2.58;;;8.90;99.90;;;;;;6029974;23;20360;-90
2023/01/08 02:36:26;;;;;;;6.07;2.78;;;8.80;99.90;;;;;;6054719;23;20023;-86
2023/01/08 02:39:15;;;;;;;14.70;3.40;;;8.80;99.90;;;;;;6053113;23;20015;-89
2023/01/08 02:41:47;;;;;;;9.70;2.33;;;8.80;99.90;;;;;;6030249;23;20366;-88
2023/01/08 02:44:23;;;;;;;5.93;2.03;;;8.70;99.90;;;;;;6030261;23;20334;-90
2023/01/08 02:46:55;;;;;;;8.35;2.45;;;8.70;99.90;;;;;;6029789;23;20546;-87
2023/01/08 02:49:28;;;;;;;5.43;1.60;;;8.70;99.90;;;;;;6030331;23;20010;-87
2023/01/08 02:51:56;;;;;;;6.38;1.83;;;8.70;99.90;;;;;;6053459;23;20067;-87
2023/01/08 02:54:28;;;;;;;9.63;2.00;;;8.60;99.90;;;;;;6052637;23;20022;-87
2023/01/08 02:56:59;;;;;;;7.28;1.98;;;8.60;99.90;;;;;;6052516;23;20022;-88
2023/01/08 02:59:26;;;;;;;11.13;2.00;;;8.60;99.90;;;;;;6054332;23;20086;-90
2023/01/08 03:01:53;;;;;;;9.65;2.65;;;8.60;99.90;;;;;;6029562;23;20023;-88
2023/01/08 03:04:21;;;;;;;9.07;1.52;;;8.50;99.90;;;;;;6053971;23;20534;-86
2023/01/08 03:06:48;;;;;;;9.95;2.28;;;8.50;99.90;;;;;;6029604;23;20015;-86
2023/01/08 03:09:15;;;;;;;11.48;2.20;;;8.50;99.90;;;;;;6028479;23;20019;-88
2023/01/08 03:11:45;;;;;;;6.13;2.13;;;8.40;99.90;;;;;;6053051;23;20071;-86
2023/01/08 03:14:36;;;;;;;12.48;1.92;;;8.50;99.90;;;;;;6029441;23;20033;-87
2023/01/08 03:17:20;;;;;;;14.05;2.05;;;8.40;99.90;;;;;;6053049;23;20093;-87
2023/01/08 03:20:12;;;;;;;10.30;2.47;;;8.40;99.90;;;;;;6055420;23;20038;-87
2023/01/08 03:22:45;;;;;;;10.95;3.13;;;8.40;99.90;;;;;;6021473;23;20126;-86
2023/01/08 03:25:13;;;;;;;9.35;2.20;;;8.30;99.90;;;;;;6030573;23;20018;-88
2023/01/08 03:27:43;;;;;;;12.40;2.67;;;8.30;99.90;;;;;;6029600;23;20051;-87
2023/01/08 03:30:10;;;;;;;13.95;2.45;;;8.20;99.90;;;;;;6054326;23;20202;-88
2023/01/08 03:32:40;;;;;;;10.57;3.30;;;8.20;99.90;;;;;;6030110;23;20500;-88
2023/01/08 03:35:09;;;;;;;9.57;2.17;;;8.20;99.90;;;;;;6053870;23;20418;-88
2023/01/08 03:37:44;;;;;;;7.57;1.90;;;8.30;99.90;;;;;;6027902;23;20026;-87
2023/01/08 03:40:21;;;;;;;6.85;2.22;;;8.20;99.90;;;;;;6031758;23;20022;-89
2023/01/08 03:42:47;;;;;;;9.32;1.98;;;8.20;99.90;;;;;;6029491;23;20021;-87
2023/01/08 03:45:13;;;;;;;12.18;2.53;;;8.20;99.90;;;;;;6053534;23;20022;-89
2023/01/08 03:47:40;;;;;;;9.07;2.55;;;8.10;99.90;;;;;;6029331;23;20361;-88
2023/01/08 03:50:10;;;;;;;10.40;2.45;;;8.10;99.90;;;;;;6030050;23;20022;-90
2023/01/08 03:52:36;;;;;;;5.50;2.00;;;8.00;99.90;;;;;;6051009;23;20334;-89
2023/01/08 03:55:02;;;;;;;9.25;2.45;;;8.00;99.90;;;;;;6029649;23;20033;-88
2023/01/08 03:57:28;;;;;;;8.80;2.45;;;8.00;99.90;;;;;;6050968;23;20049;-89
2023/01/08 03:59:53;;;;;;;5.50;2.25;;;8.10;99.90;;;;;;6052849;23;20369;-88
2023/01/08 04:02:22;;;;;;;5.28;2.20;;;8.10;99.90;;;;;;6053027;23;20022;-89
2023/01/08 04:04:47;;;;;;;8.57;2.72;;;8.10;99.90;;;;;;6053029;23;20058;-89
2023/01/08 04:07:13;;;;;;;7.50;2.60;;;8.10;99.90;;;;;;6027955;23;20019;-89
2023/01/08 04:09:39;;;;;;;6.38;2.55;;;8.10;99.90;;;;;;6029855;23;20094;-89
2023/01/08 04:12:05;;;;;;;5.93;2.58;;;8.10;99.90;;;;;;6053343;23;20452;-87
2023/01/08 04:14:30;;;;;;;6.15;2.95;;;8.20;99.90;;;;;;6030460;23;20122;-90
2023/01/08 04:16:56;;;;;;;4.68;2.70;;;8.20;99.90;;;;;;6052766;23;20023;-87
2023/01/08 04:19:22;;;;;;;5.75;3.00;;;8.20;99.90;;;;;;6053951;23;20031;-86
2023/01/08 04:21:51;;;;;;;7.93;3.00;;;8.20;99.90;;;;;;6052214;23;20057;-87
2023/01/08 04:24:20;;;;;;;11.85;3.55;;;8.20;99.90;;;;;;6027608;23;20492;-88
2023/01/08 04:26:45;;;;;;;5.80;3.08;;;8.20;99.90;;;;;;6030017;23;20018;-88
2023/01/08 04:29:12;;;;;;;10.07;4.00;;;8.20;99.90;;;;;;6051961;23;20392;-88
2023/01/08 04:31:38;;;;;;;7.13;3.33;;;8.20;99.90;;;;;;6029075;23;20445;-87
2023/01/08 04:34:03;;;;;;;8.30;3.72;;;8.20;99.90;;;;;;6053920;23;20026;-90
2023/01/08 04:36:29;;;;;;;6.90;3.67;;;8.30;99.90;;;;;;6029147;23;20019;-88
2023/01/08 04:38:55;;;;;;;9.00;3.95;;;8.30;99.90;;;;;;6027784;23;20452;-86
2023/01/08 04:41:23;;;;;;;9.27;4.68;;;8.30;99.90;;;;;;6053308;23;20014;-87
2023/01/08 04:43:49;;;;;;;8.90;3.80;;;8.30;99.90;;;;;;6052564;23;20305;-87
2023/01/08 04:46:17;;;;;;;8.75;4.20;;;8.40;99.90;;;;;;6052746;23;20090;-87
2023/01/08 04:48:43;;;;;;;9.10;3.75;;;8.50;99.90;;;;;;6028107;23;20344;-88
2023/01/08 04:51:08;;;;;;;5.75;3.65;;;8.40;99.90;;;;;;6028640;23;20287;-89
2023/01/08 04:53:35;;;;;;;6.93;4.50;;;8.40;99.90;;;;;;6050175;23;20023;-88
2023/01/08 04:56:06;;;;;;;8.43;4.35;;;8.50;99.90;;;;;;6053059;23;20097;-88
2023/01/08 04:58:33;;;;;;;8.45;4.32;;;8.50;99.90;;;;;;6027191;23;20541;-88
2023/01/08 05:00:59;;;;;;;8.20;3.80;;;8.50;99.90;;;;;;6052911;23;20015;-89
2023/01/08 05:03:24;;;;;;;6.60;3.70;;;8.50;99.90;;;;;;6028502;23;20036;-88
2023/01/08 05:05:50;;;;;;;6.68;3.70;;;8.40;99.90;;;;;;6052454;23;20536;-87
2023/01/08 05:08:16;;;;;;;5.93;3.38;;;8.40;99.90;;;;;;6051013;23;20023;-88
2023/01/08 05:10:41;;;;;;;7.60;3.85;;;8.40;99.90;;;;;;6027974;23;20018;-87
2023/01/08 05:13:07;;;;;;;7.15;3.30;;;8.40;99.90;;;;;;6028416;23;20107;-88
2023/01/08 05:15:33;;;;;;;6.15;3.40;;;8.40;99.90;;;;;;6028891;23;20096;-88
2023/01/08 05:18:04;;;;;;;7.45;3.60;;;8.50;99.90;;;;;;6051581;23;20022;-88
2023/01/08 05:20:31;;;;;;;4.32;3.28;;;8.50;99.90;;;;;;6029170;23;20029;-89
2023/01/08 05:23:00;;;;;;;6.75;3.25;;;8.50;99.90;;;;;;6025758;23;20055;-88
2023/01/08 05:25:25;;;;;;;9.13;3.00;;;8.60;99.90;;;;;;6028447;23;20030;-88
2023/01/08 05:27:52;;;;;;;6.82;2.80;;;8.60;99.90;;;;;;6052275;23;20591;-89
2023/01/08 05:30:17;;;;;;;4.68;2.83;;;8.60;99.90;;;;;;6028961;23;20022;-87
2023/01/08 05:32:43;;;;;;;8.73;2.83;;;8.60;99.90;;;;;;6028321;23;20019;-88
2023/01/08 05:35:09;;;;;;;5.70;2.78;;;8.50;99.90;;;;;;6052305;23;20679;-88
2023/01/08 05:37:39;;;;;;;7.47;2.75;;;8.50;99.90;;;;;;6026839;23;20023;-87
2023/01/08 05:40:07;;;;;;;7.78;2.75;;;8.50;99.90;;;;;;6053938;23;20279;-89
2023/01/08 05:42:34;;;;;;;6.63;2.85;;;8.50;99.90;;;;;;6053255;23;20019;-87
2023/01/08 05:45:07;;;;;;;6.78;2.72;;;8.50;99.90;;;;;;6051822;23;20045;-87
2023/01/08 05:47:34;;;;;;;5.97;2.60;;;8.50;99.90;;;;;;6027932;23;20369;-88
2023/01/08 05:49:59;;;;;;;7.65;2.75;;;8.50;99.90;;;;;;6029473;23;20461;-87
2023/01/08 05:52:28;;;;;;;7.13;2.70;;;8.40;99.90;;;;;;6050765;23;20425;-89
2023/01/08 05:54:53;;;;;;;6.95;2.60;;;8.40;99.90;;;;;;6029255;23;20187;-88
2023/01/08 05:57:19;;;;;;;5.93;2.75;;;8.50;99.90;;;;;;6028428;23;20073;-87
2023/01/08 05:59:48;;;;;;;3.22;2.25;;;8.50;99.90;;;;;;6029217;23;20698;-88
2023/01/08 06:02:13;;;;;;;3.67;2.50;;;8.50;99.90;;;;;;6051297;23;20054;-89
2023/01/08 06:04:39;;;;;;;3.88;2.30;;;8.50;99.90;;;;;;6029639;23;20393;-89
2023/01/08 06:07:05;;;;;;;4.63;2.38;;;8.40;99.90;;;;;;6027690;23;21228;-89
2023/01/08 06:09:30;;;;;;;5.30;2.30;;;8.40;99.90;;;;;;6028036;23;20087;-87
2023/01/08 06:11:57;;;;;;;7.35;2.72;;;8.30;99.90;;;;;;6052133;23;20033;-87
2023/01/08 06:14:23;;;;;;;6.53;2.53;;;8.30;99.90;;;;;;6052721;23;20029;-91
2023/01/08 06:16:51;;;;;;;5.60;2.72;;;8.40;99.90;;;;;;6052465;23;20153;-87
2023/01/08 06:19:17;;;;;;;5.35;3.08;;;8.50;99.90;;;;;;6027962;23;20318;-87
2023/01/08 06:21:44;;;;;;;7.03;3.03;;;8.50;99.90;;;;;;6028678;23;20022;-87
2023/01/08 06:24:09;;;;;;;4.88;2.88;;;8.60;99.90;;;;;;6027187;23;20026;-88
2023/01/08 06:26:35;;;;;;;6.13;3.33;;;8.50;99.90;;;;;;6029346;23;20015;-89
2023/01/08 06:29:01;;;;;;;4.20;3.10;;;8.50;99.90;;;;;;6052499;23;20046;-88
2023/01/08 06:31:26;;;;;;;4.53;3.15;;;8.50;99.90;;;;;;6028064;23;20014;-88
2023/01/08 06:33:55;;;;;;;6.82;3.90;;;8.40;99.90;;;;;;6052506;23;20023;-88
2023/01/08 06:36:20;;;;;;;5.95;3.70;;;8.50;99.90;;;;;;6052140;23;20390;-87
2023/01/08 06:38:46;;;;;;;7.20;3.60;;;8.40;99.90;;;;;;6027069;23;20022;-88
2023/01/08 06:41:12;;;;;;;4.80;3.47;;;8.30;99.90;;;;;;6027467;23;20118;-88
2023/01/08 06:43:37;;;;;;;5.70;3.45;;;8.30;99.90;;;;;;6027130;23;20125;-88
2023/01/08 06:46:05;;;;;;;7.68;3.67;;;8.20;99.90;;;;;;6028198;23;20054;-88
2023/01/08 06:48:30;;;;;;;7.82;4.00;;;8.20;99.90;;;;;;6028656;23;20046;-86
2023/01/08 06:50:59;;;;;;;7.78;3.70;;;8.10;99.90;;;;;;6029290;23;20363;-87
2023/01/08 06:53:25;;;;;;;5.65;3.30;;;8.10;99.90;;;;;;6051316;23;20296;-88
2023/01/08 06:55:55;;;;;;;5.40;3.15;;;8.10;99.90;;;;;;6054266;23;20018;-90
2023/01/08 06:58:22;;;;;;;9.52;3.75;;;8.20;99.90;;;;;;6052650;23;20066;-88
2023/01/08 07:00:51;;;;;;;6.22;3.33;;;8.10;99.90;;;;;;6029883;23;20103;-87
2023/01/08 07:03:17;;;;;;;6.88;3.53;;;8.10;99.90;;;;;;6028835;23;20238;-90
2023/01/08 07:05:43;;;;;;;7.28;3.42;;;8.10;99.90;;;;;;6030613;23;20022;-90
2023/01/08 07:08:16;;;;;;;7.65;3.40;;;8.10;99.90;;;;;;6052988;23;20019;-88
2023/01/08 07:10:42;;;;;;;6.43;3.30;;;8.10;99.90;;;;;;6029410;23;20376;-89
2023/01/08 07:13:08;;;;;;;6.60;2.72;;;8.10;99.90;;;;;;6029865;23;20022;-87
2023/01/08 07:15:38;;;;;;;8.15;3.60;;;8.10;99.90;;;;;;6053714;23;20015;-87
2023/01/08 07:18:09;;;;;;;4.63;2.78;;;8.00;99.90;;;;;;6028768;23;20057;-87
2023/01/08 07:20:34;;;;;;;5.47;2.95;;;8.00;99.90;;;;;;6030399;23;20211;-90
2023/01/08 07:23:05;;;;;;;6.43;2.95;;;7.90;99.90;;;;;;6051821;23;20403;-88
2023/01/08 07:25:31;;;;;;;4.95;2.88;;;7.80;99.90;;;;;;6054399;23;20018;-90
2023/01/08 07:27:58;;;;;;;5.22;2.80;;;7.80;99.90;;;;;;6029574;23;20057;-88
2023/01/08 07:30:24;;;;;;;5.15;2.70;;;7.80;99.90;;;;;;6030756;23;20014;-89
2023/01/08 07:32:49;;;;;;;7.07;2.67;;;7.70;99.90;;;;;;6028805;23;20014;-88
2023/01/08 07:35:15;;;;;;;7.55;2.83;;;7.60;99.90;;;;;;6030360;23;20029;-88
2023/01/08 07:37:41;;;;;;;6.22;2.85;;;7.60;99.90;;;;;;6027557;23;20434;-88
2023/01/08 07:40:09;;;;;;;6.93;2.53;;;7.60;99.90;;;;;;6054053;23;20294;-87
2023/01/08 07:42:35;;;;;;;6.10;2.45;;;7.60;99.90;;;;;;6052469;23;20464;-88
2023/01/08 07:45:00;;;;;;;7.25;2.95;;;7.60;99.90;;;;;;6030409;23;20019;-89
2023/01/08 07:47:26;;;;;;;9.32;2.60;;;7.60;99.90;;;;;;6053265;23;20110;-90
2023/01/08 07:49:52;;;;;;;6.68;2.67;;;7.60;99.90;;;;;;6053746;23;20018;-88
2023/01/08 07:52:17;;;;;;;8.27;3.00;;;7.70;99.90;;;;;;6028464;23;20011;-88
2023/01/08 07:54:43;;;;;;;6.82;2.83;;;7.70;99.90;;;;;;6031241;23;20023;-89
2023/01/08 07:57:09;;;;;;;6.55;3.15;;;7.60;99.90;;;;;;6030160;23;20030;-88
2023/01/08 07:59:34;;;;;;;8.27;2.90;;;7.50;99.90;;;;;;6030387;23;20034;-88
2023/01/08 08:02:00;;;;;;;8.10;3.40;;;7.50;99.90;;;;;;6030027;23;20019;-88
2023/01/08 08:04:25;;;;;;;6.85;3.42;;;7.50;99.90;;;;;;6054368;23;20030;-88
2023/01/08 08:06:52;;;;;;;11.82;5.93;;;7.50;99.90;;;;;;6028980;23;20030;-89
2023/01/08 08:09:18;;;;;;;18.08;9.35;;;7.40;99.90;;;;;;6029113;23;20473;-88
2023/01/08 08:11:43;;;;;;;11.70;4.90;;;7.50;99.90;;;;;;6029927;23;20094;-87
2023/01/08 08:14:12;;;;;;;11.65;5.03;;;7.50;99.90;;;;;;6054032;23;20023;-88
2023/01/08 08:16:37;;;;;;;10.60;3.60;;;7.40;99.90;;;;;;6052134;23;20086;-88
2023/01/08 08:19:03;;;;;;;11.05;5.47;;;7.50;99.90;;;;;;6054216;23;20045;-88
2023/01/08 08:21:29;;;;;;;10.13;3.40;;;7.40;99.90;;;;;;6054285;23;20045;-88
2023/01/08 08:23:55;;;;;;;6.38;2.65;;;7.40;99.90;;;;;;6027584;23;20074;-88
2023/01/08 08:26:22;;;;;;;12.93;3.40;;;7.50;99.90;;;;;;6052461;23;20014;-88
2023/01/08 08:28:48;;;;;;;10.98;3.00;;;7.50;99.90;;;;;;6052597;23;20026;-87
2023/01/08 08:31:14;;;;;;;8.30;3.45;;;7.50;99.90;;;;;;6052745;23;20058;-88
2023/01/08 08:33:40;;;;;;;6.53;3.15;;;7.50;99.90;;;;;;6028492;23;20063;-88
2023/01/08 08:36:06;;;;;;;8.63;2.80;;;7.50;99.90;;;;;;6052920;23;20023;-89
2023/01/08 08:38:32;;;;;;;6.85;3.00;;;7.50;99.90;;;;;;6050245;23;20018;-89
2023/01/08 08:40:57;;;;;;;9.45;3.35;;;7.60;99.90;;;;;;6028937;23;20492;-88
2023/01/08 08:43:23;;;;;;;5.93;2.53;;;7.60;99.90;;;;;;6027593;23;20014;-86
2023/01/08 08:45:48;;;;;;;8.05;2.92;;;7.60;99.90;;;;;;6030039;23;20026;-89
2023/01/08 08:48:15;;;;;;;9.18;3.25;;;7.70;99.90;;;;;;6027349;23;20022;-87
2023/01/08 08:50:44;;;;;;;8.48;2.80;;;7.60;99.90;;;;;;6028462;23;20018;-87
2023/01/08 08:53:10;;;;;;;8.52;2.85;;;7.70;99.90;;;;;;6025963;23;20027;-87
2023/01/08 08:55:35;;;;;;;9.27;2.90;;;7.70;99.90;;;;;;6051678;23;20089;-89
2023/01/08 08:58:12;;;;;;;9.15;2.90;;;7.70;99.90;;;;;;6051987;23;20022;-87
2023/01/08 09:00:40;;;;;;;5.90;2.90;;;7.70;99.90;;;;;;6052455;23;20070;-88
2023/01/08 09:03:06;;;;;;;9.35;3.50;;;7.70;99.90;;;;;;6028047;23;20023;-89
2023/01/08 09:05:35;;;;;;;10.50;4.00;;;7.70;99.90;;;;;;6052883;23;20449;-89
2023/01/08 09:08:04;;;;;;;12.10;4.93;;;7.70;99.90;;;;;;6049745;23;20015;-88
2023/01/08 09:10:29;;;;;;;9.35;3.60;;;7.80;99.90;;;;;;6053392;23;20447;-89
2023/01/08 09:12:55;;;;;;;11.70;3.00;;;7.80;99.90;;;;;;6051428;23;20019;-89
2023/01/08 09:15:21;;;;;;;10.25;3.10;;;7.80;99.90;;;;;;6052013;23;20018;-88
2023/01/08 09:17:55;;;;;;;9.23;3.38;;;7.90;99.90;;;;;;6052847;23;20072;-88
2023/01/08 09:20:22;;;;;;;11.02;3.00;;;7.90;99.90;;;;;;6029286;23;20349;-87
2023/01/08 09:22:47;;;;;;;8.70;2.60;;;7.90;99.90;;;;;;6026048;23;20029;-87
2023/01/08 09:25:13;;;;;;;7.13;2.38;;;7.90;99.90;;;;;;6053427;23;20014;-88
2023/01/08 09:27:39;;;;;;;10.10;2.38;;;7.90;99.90;;;;;;6028162;23;20026;-89
2023/01/08 09:30:05;;;;;;;4.95;2.17;;;8.00;99.90;;;;;;6052716;23;20042;-87
2023/01/08 09:32:31;;;;;;;8.95;2.55;;;8.00;99.90;;;;;;6053198;23;20019;-87
2023/01/08 09:34:56;;;;;;;8.90;2.58;;;8.00;99.90;;;;;;6052871;23;20046;-86
2023/01/08 09:37:25;;;;;;;7.85;2.63;;;8.00;99.90;;;;;;6050303;23;20387;-89
2023/01/08 09:39:50;;;;;;;5.72;2.28;;;8.00;99.90;;;;;;6052332;23;20157;-88
2023/01/08 09:42:21;;;;;;;6.32;2.28;;;8.00;99.90;;;;;;6027286;23;20023;-89
2023/01/08 09:44:54;;;;;;;12.85;2.60;;;8.10;99.90;;;;;;6028454;23;20412;-87
2023/01/08 09:47:27;;;;;;;10.10;3.00;;;8.10;99.90;;;;;;6027327;23;20318;-88
2023/01/08 09:50:01;;;;;;;6.22;2.05;;;8.10;99.90;;;;;;6028952;23;20015;-87
2023/01/08 09:52:27;;;;;;;5.65;2.58;;;8.10;99.90;;;;;;6049957;23;20086;-89
2023/01/08 09:54:53;;;;;;;7.57;2.25;;;8.20;99.90;;;;;;6053729;23;20014;-87
2023/01/08 09:57:21;;;;;;;3.13;1.80;;;8.20;99.90;;;;;;6029925;23;20037;-87
2023/01/08 09:59:48;;;;;;;8.40;2.05;;;8.20;99.90;;;;;;6052555;23;20015;-87
2023/01/08 10:02:19;;;;;;;5.28;1.88;;;8.20;99.90;;;;;;6051286;23;20022;-88
2023/01/08 10:04:48;;;;;;;9.98;2.17;;;8.30;99.90;;;;;;6028440;23;20031;-88
2023/01/08 10:07:24;;;;;;;9.75;2.90;;;8.30;99.90;;;;;;6049391;23;20017;-88
2023/01/08 10:09:50;;;;;;;6.50;2.17;;;8.30;99.90;;;;;;6030323;23;20014;-89
2023/01/08 10:12:27;;;;;;;7.78;2.40;;;8.30;99.90;;;;;;6028853;23;20041;-88
2023/01/08 10:14:58;;;;;;;10.18;2.85;;;8.30;99.90;;;;;;6029016;23;20015;-88
2023/01/08 10:17:35;;;;;;;7.63;2.33;;;8.40;99.90;;;;;;6027671;23;20138;-89
2023/01/08 10:20:15;;;;;;;7.35;2.00;;;8.40;99.90;;;;;;6029776;23;20023;-88
2023/01/08 10:22:41;;;;;;;7.60;2.28;;;8.50;99.90;;;;;;6028084;23;20022;-89
2023/01/08 10:25:14;;;;;;;8.68;2.03;;;8.40;99.90;;;;;;6030334;23;20094;-88
2023/01/08 10:28:11;;;;;;;11.30;2.60;;;8.50;99.90;;;;;;6028736;23;20025;-88
2023/01/08 10:30:38;;;;;;;6.45;2.63;;;8.40;99.90;;;;;;6027791;23;20054;-88
2023/01/08 10:33:10;;;;;;;7.55;2.00;;;8.40;99.90;;;;;;6052965;23;20022;-88
2023/01/08 10:35:41;;;;;;;5.22;1.88;;;8.40;99.90;;;;;;6052384;23;20023;-89
2023/01/08 10:38:33;;;;;;;8.85;2.50;;;8.40;99.90;;;;;;6051088;23;20015;-88
2023/01/08 10:41:02;;;;;;;11.02;3.55;;;8.50;99.90;;;;;;6029772;23;20144;-89
2023/01/08 10:43:33;;;;;;;11.77;2.42;;;8.50;99.90;;;;;;6028821;23;20093;-88
2023/01/08 10:46:02;;;;;;;9.63;2.35;;;8.60;99.90;;;;;;6030274;23;20412;-88
2023/01/08 10:48:43;;;;;;;7.97;2.17;;;8.70;99.90;;;;;;6028896;23;20021;-88
2023/01/08 10:51:16;;;;;;;5.60;2.13;;;8.80;99.90;;;;;;6053201;23;20041;-88
2023/01/08 10:53:42;;;;;;;6.70;2.15;;;8.80;99.90;;;;;;6027261;23;20098;-88
2023/01/08 10:56:25;;;;;;;10.02;2.13;;;9.00;99.90;;;;;;6028698;23;20445;-88
2023/01/08 10:58:51;;;;;;;10.32;2.50;;;9.00;99.90;;;;;;6028438;23;20517;-88
2023/01/08 11:01:19;;;;;;;6.75;2.30;;;9.00;99.90;;;;;;6054178;23;20094;-88
2023/01/08 11:03:50;;;;;;;10.35;2.50;;;9.10;99.90;;;;;;6028796;23;20109;-88
2023/01/08 11:06:24;;;;;;;10.60;2.40;;;9.20;99.90;;;;;;6029195;23;20468;-88
2023/01/08 11:09:02;;;;;;;9.00;2.22;;;9.10;99.90;;;;;;6027515;23;20291;-87
2023/01/08 11:11:36;;;;;;;10.93;2.42;;;9.10;99.90;;;;;;6029199;23;20019;-87
2023/01/08 11:14:10;;;;;;;10.65;2.33;;;9.00;99.90;;;;;;6029556;23;20061;-87
2023/01/08 11:16:40;;;;;;;13.70;2.67;;;9.00;99.90;;;;;;6029026;23;20026;-88
2023/01/08 11:19:21;;;;;;;7.50;2.42;;;9.10;99.90;;;;;;6028511;23;20023;-88
2023/01/08 11:22:07;;;;;;;8.45;1.98;;;9.00;99.90;;;;;;6028252;23;20038;-89
2023/01/08 11:24:37;;;;;;;10.82;2.38;;;9.00;99.90;;;;;;6028799;23;20026;-88
2023/01/08 11:27:06;;;;;;;12.18;2.60;;;9.00;99.90;;;;;;6029267;23;20018;-89
2023/01/08 11:30:01;;;;;;;9.23;2.50;;;8.90;99.90;;;;;;6053237;23;20018;-89
2023/01/08 11:33:15;;;;;;;14.90;2.47;;;9.00;99.90;;;;;;6029118;23;20015;-88
2023/01/08 11:35:59;;;;;;;11.20;2.20;;;9.00;99.90;;;;;;6018956;23;20015;-88
2023/01/08 11:38:27;;;;;;;8.75;2.70;;;9.10;99.90;;;;;;6027349;23;20025;-87
2023/01/08 11:41:16;;;;;;;11.68;2.80;;;9.00;99.90;;;;;;6053845;23;20292;-90
2023/01/08 11:43:58;;;;;;;8.55;2.58;;;9.10;99.90;;;;;;6049295;23;20138;-88
2023/01/08 11:46:44;;;;;;;9.65;2.72;;;9.20;99.90;;;;;;6029788;23;20310;-88
2023/01/08 11:49:26;;;;;;;12.77;3.38;;;9.20;99.90;;;;;;6053860;23;20023;-88
2023/01/08 11:52:19;;;;;;;9.15;2.78;;;9.20;99.90;;;;;;6029213;23;20045;-88
2023/01/08 11:54:54;;;;;;;10.77;2.92;;;9.20;99.90;;;;;;6030545;23;20428;-88
2023/01/08 11:57:38;;;;;;;8.10;2.92;;;9.10;99.90;;;;;;6029677;23;20025;-87
2023/01/08 12:00:54;;;;;;;15.27;3.55;;;9.20;99.90;;;;;;6030837;23;20021;-88
2023/01/08 12:03:41;;;;;;;8.98;2.55;;;9.10;99.90;;;;;;5962690;23;20022;-87
2023/01/08 12:06:23;;;;;;;10.80;2.75;;;9.10;99.90;;;;;;6020667;23;20507;-87
2023/01/08 12:08:52;;;;;;;7.82;2.30;;;9.10;99.90;;;;;;6027947;23;20019;-88
2023/01/08 12:11:27;;;;;;;8.50;2.63;;;9.20;99.90;;;;;;6053498;23;20066;-88
2023/01/08 12:14:18;;;;;;;11.98;3.03;;;9.10;99.90;;;;;;6053770;23;20034;-88
2023/01/08 12:16:52;;;;;;;10.93;2.70;;;9.10;99.90;;;;;;6029697;23;20018;-87
2023/01/08 12:19:30;;;;;;;11.98;2.97;;;9.30;99.90;;;;;;6029465;23;20027;-87
2023/01/08 12:22:29;;;;;;;12.27;2.65;;;9.30;99.90;;;;;;6028229;23;20502;-88
2023/01/08 12:25:16;;;;;;;7.88;2.65;;;9.10;99.90;;;;;;6053182;23;20023;-87
2023/01/08 12:28:01;;;;;;;11.98;3.03;;;9.10;99.90;;;;;;6053039;23;20441;-88
2023/01/08 12:30:32;;;;;;;7.38;2.53;;;9.20;99.90;;;;;;6029066;23;20102;-87
2023/01/08 12:33:03;;;;;;;9.77;2.97;;;9.30;99.90;;;;;;6028738;23;20452;-88
2023/01/08 12:35:42;;;;;;;13.60;3.33;;;9.30;99.90;;;;;;6029688;23;20023;-86
2023/01/08 12:38:11;;;;;;;13.18;2.92;;;9.40;99.90;;;;;;6050989;23;20019;-88
2023/01/08 12:40:55;;;;;;;14.52;3.30;;;9.40;99.90;;;;;;6053312;23;20353;-88
2023/01/08 12:43:31;;;;;;;8.00;2.60;;;9.40;99.90;;;;;;6028958;23;20015;-89
2023/01/08 12:46:00;;;;;;;11.23;2.30;;;9.40;99.90;;;;;;6029279;23;20058;-89
2023/01/08 12:48:32;;;;;;;10.57;3.17;;;9.40;99.90;;;;;;6053081;23;20491;-87
2023/01/08 12:51:09;;;;;;;10.00;2.65;;;9.40;99.90;;;;;;6052298;23;20033;-88
2023/01/08 12:53:48;;;;;;;10.52;2.85;;;9.40;99.90;;;;;;6027458;23;20022;-86
2023/01/08 12:56:30;;;;;;;7.78;2.70;;;9.40;99.90;;;;;;6053103;23;20434;-87
2023/01/08 12:59:27;;;;;;;13.57;2.70;;;9.40;99.90;;;;;;6052705;23;20015;-88
2023/01/08 13:02:21;;;;;;;8.65;2.25;;;9.60;99.90;;;;;;6052928;23;20572;-87
2023/01/08 13:04:47;;;;;;;9.07;2.45;;;9.40;99.90;;;;;;6029267;23;20086;-89
2023/01/08 13:07:25;;;;;;;13.48;2.70;;;9.40;99.90;;;;;;6049618;23;20015;-90
2023/01/08 13:10:01;;;;;;;11.57;2.95;;;9.50;99.90;;;;;;6053104;23;20078;-88
2023/01/08 13:12:39;;;;;;;8.63;2.33;;;9.50;99.90;;;;;;6051172;23;20069;-88